sensor_id;sensor_type;location;lat;lon;timestamp;P1;durP1;ratioP1;P2;durP2;ratioP2
79487;SDS011;68949;53.176;18.088;2023-04-24T00:01:06;11.10;;;5.30;;
79487;SDS011;68949;53.176;18.088;2023-04-24T00:03:33;10.10;;;5.80;;
79487;SDS011;68949;53.176;18.088;2023-04-24T00:06:00;10.00;;;6.00;;
79487;SDS011;68949;53.176;18.088;2023-04-24T00:08:29;9.70;;;5.90;;
79487;SDS011;68949;53.176;18.088;2023-04-24T00:10:56;10.80;;;5.80;;
79487;SDS011;68949;53.176;18.088;2023-04-24T00:13:23;9.80;;;6.20;;
79487;SDS011;68949;53.176;18.088;2023-04-24T00:15:50;11.00;;;6.40;;
79487;SDS011;68949;53.176;18.088;2023-04-24T00:18:17;10.60;;;6.30;;
79487;SDS011;68949;53.176;18.088;2023-04-24T00:20:44;11.00;;;6.40;;
79487;SDS011;68949;53.176;18.088;2023-04-24T00:23:11;9.70;;;6.00;;
79487;SDS011;68949;53.176;18.088;2023-04-24T00:25:38;9.20;;;6.00;;
79487;SDS011;68949;53.176;18.088;2023-04-24T00:28:05;12.00;;;6.20;;
79487;SDS011;68949;53.176;18.088;2023-04-24T00:30:32;10.10;;;5.90;;
79487;SDS011;68949;53.176;18.088;2023-04-24T00:32:58;11.30;;;6.30;;
79487;SDS011;68949;53.176;18.088;2023-04-24T00:35:25;10.00;;;6.00;;
79487;SDS011;68949;53.176;18.088;2023-04-24T00:37:52;10.40;;;7.10;;
79487;SDS011;68949;53.176;18.088;2023-04-24T00:40:19;10.70;;;6.00;;
79487;SDS011;68949;53.176;18.088;2023-04-24T00:42:46;9.70;;;6.60;;
79487;SDS011;68949;53.176;18.088;2023-04-24T00:45:13;11.20;;;6.40;;
79487;SDS011;68949;53.176;18.088;2023-04-24T00:47:41;11.50;;;6.80;;
79487;SDS011;68949;53.176;18.088;2023-04-24T00:50:08;10.10;;;6.20;;
79487;SDS011;68949;53.176;18.088;2023-04-24T00:52:35;11.10;;;6.50;;
79487;SDS011;68949;53.176;18.088;2023-04-24T00:55:02;12.30;;;6.60;;
79487;SDS011;68949;53.176;18.088;2023-04-24T00:57:30;11.90;;;6.40;;
79487;SDS011;68949;53.176;18.088;2023-04-24T00:59:57;10.30;;;7.10;;
79487;SDS011;68949;53.176;18.088;2023-04-24T01:02:24;12.20;;;6.90;;
79487;SDS011;68949;53.176;18.088;2023-04-24T01:04:52;14.50;;;7.20;;
79487;SDS011;68949;53.176;18.088;2023-04-24T01:07:20;12.00;;;7.60;;
79487;SDS011;68949;53.176;18.088;2023-04-24T01:09:48;12.50;;;7.20;;
79487;SDS011;68949;53.176;18.088;2023-04-24T01:12:19;12.50;;;7.40;;
79487;SDS011;68949;53.176;18.088;2023-04-24T01:14:46;13.50;;;7.90;;
79487;SDS011;68949;53.176;18.088;2023-04-24T01:17:13;13.20;;;7.70;;
79487;SDS011;68949;53.176;18.088;2023-04-24T01:19:39;14.10;;;8.50;;
79487;SDS011;68949;53.176;18.088;2023-04-24T01:22:11;13.00;;;8.00;;
79487;SDS011;68949;53.176;18.088;2023-04-24T01:24:40;12.80;;;8.50;;
79487;SDS011;68949;53.176;18.088;2023-04-24T01:27:09;14.80;;;9.20;;
79487;SDS011;68949;53.176;18.088;2023-04-24T01:29:37;15.00;;;8.80;;
79487;SDS011;68949;53.176;18.088;2023-04-24T01:32:05;13.30;;;9.10;;
79487;SDS011;68949;53.176;18.088;2023-04-24T01:34:32;14.80;;;8.40;;
79487;SDS011;68949;53.176;18.088;2023-04-24T01:37:00;15.00;;;8.30;;
79487;SDS011;68949;53.176;18.088;2023-04-24T01:39:27;12.40;;;8.20;;
79487;SDS011;68949;53.176;18.088;2023-04-24T01:41:55;14.60;;;9.00;;
79487;SDS011;68949;53.176;18.088;2023-04-24T01:44:23;14.10;;;8.40;;
79487;SDS011;68949;53.176;18.088;2023-04-24T01:46:50;13.20;;;8.80;;
79487;SDS011;68949;53.176;18.088;2023-04-24T01:49:16;12.30;;;7.60;;
79487;SDS011;68949;53.176;18.088;2023-04-24T01:51:45;14.30;;;8.50;;
79487;SDS011;68949;53.176;18.088;2023-04-24T01:54:12;12.80;;;8.30;;
79487;SDS011;68949;53.176;18.088;2023-04-24T01:56:42;12.20;;;8.30;;
79487;SDS011;68949;53.176;18.088;2023-04-24T01:59:11;14.60;;;8.10;;
79487;SDS011;68949;53.176;18.088;2023-04-24T02:01:39;14.20;;;8.10;;
79487;SDS011;68949;53.176;18.088;2023-04-24T02:04:06;14.50;;;8.20;;
79487;SDS011;68949;53.176;18.088;2023-04-24T02:06:35;15.20;;;8.70;;
79487;SDS011;68949;53.176;18.088;2023-04-24T02:09:02;14.20;;;7.90;;
79487;SDS011;68949;53.176;18.088;2023-04-24T02:11:30;13.30;;;8.20;;
79487;SDS011;68949;53.176;18.088;2023-04-24T02:13:57;14.00;;;8.60;;
79487;SDS011;68949;53.176;18.088;2023-04-24T02:16:24;13.30;;;7.80;;
79487;SDS011;68949;53.176;18.088;2023-04-24T02:18:52;15.40;;;8.70;;
79487;SDS011;68949;53.176;18.088;2023-04-24T02:21:18;13.70;;;8.70;;
79487;SDS011;68949;53.176;18.088;2023-04-24T02:23:45;12.70;;;8.20;;
79487;SDS011;68949;53.176;18.088;2023-04-24T02:26:13;14.90;;;9.10;;
79487;SDS011;68949;53.176;18.088;2023-04-24T02:28:39;15.90;;;8.70;;
79487;SDS011;68949;53.176;18.088;2023-04-24T02:31:06;16.90;;;9.60;;
79487;SDS011;68949;53.176;18.088;2023-04-24T02:33:33;17.20;;;9.40;;
79487;SDS011;68949;53.176;18.088;2023-04-24T02:36:00;15.00;;;9.40;;
79487;SDS011;68949;53.176;18.088;2023-04-24T02:38:27;15.40;;;9.30;;
79487;SDS011;68949;53.176;18.088;2023-04-24T02:40:53;17.80;;;9.90;;
79487;SDS011;68949;53.176;18.088;2023-04-24T02:43:21;15.90;;;9.80;;
79487;SDS011;68949;53.176;18.088;2023-04-24T02:45:47;18.50;;;10.00;;
79487;SDS011;68949;53.176;18.088;2023-04-24T02:48:14;14.30;;;9.00;;
79487;SDS011;68949;53.176;18.088;2023-04-24T02:50:41;18.30;;;10.90;;
79487;SDS011;68949;53.176;18.088;2023-04-24T02:53:08;17.50;;;10.00;;
79487;SDS011;68949;53.176;18.088;2023-04-24T02:55:34;19.60;;;11.20;;
79487;SDS011;68949;53.176;18.088;2023-04-24T02:58:02;18.60;;;10.90;;
79487;SDS011;68949;53.176;18.088;2023-04-24T03:00:29;16.80;;;9.90;;
79487;SDS011;68949;53.176;18.088;2023-04-24T03:02:56;15.90;;;10.00;;
79487;SDS011;68949;53.176;18.088;2023-04-24T03:05:23;19.40;;;11.00;;
79487;SDS011;68949;53.176;18.088;2023-04-24T03:07:50;20.10;;;11.40;;
79487;SDS011;68949;53.176;18.088;2023-04-24T03:10:18;18.80;;;10.80;;
79487;SDS011;68949;53.176;18.088;2023-04-24T03:12:45;17.30;;;10.70;;
79487;SDS011;68949;53.176;18.088;2023-04-24T03:15:12;17.90;;;10.50;;
79487;SDS011;68949;53.176;18.088;2023-04-24T03:17:39;19.10;;;10.50;;
79487;SDS011;68949;53.176;18.088;2023-04-24T03:20:08;17.80;;;10.40;;
79487;SDS011;68949;53.176;18.088;2023-04-24T03:22:35;18.20;;;10.60;;
79487;SDS011;68949;53.176;18.088;2023-04-24T03:25:03;17.50;;;10.70;;
79487;SDS011;68949;53.176;18.088;2023-04-24T03:27:31;21.70;;;10.90;;
79487;SDS011;68949;53.176;18.088;2023-04-24T03:30:03;18.90;;;11.70;;
79487;SDS011;68949;53.176;18.088;2023-04-24T03:32:38;19.60;;;11.00;;
79487;SDS011;68949;53.176;18.088;2023-04-24T03:35:07;19.60;;;11.20;;
79487;SDS011;68949;53.176;18.088;2023-04-24T03:37:35;19.10;;;10.10;;
79487;SDS011;68949;53.176;18.088;2023-04-24T03:40:20;19.80;;;11.30;;
79487;SDS011;68949;53.176;18.088;2023-04-24T03:42:47;20.00;;;10.80;;
79487;SDS011;68949;53.176;18.088;2023-04-24T03:45:13;20.10;;;11.30;;
79487;SDS011;68949;53.176;18.088;2023-04-24T03:47:41;22.60;;;11.80;;
79487;SDS011;68949;53.176;18.088;2023-04-24T03:50:09;19.60;;;11.30;;
79487;SDS011;68949;53.176;18.088;2023-04-24T03:52:36;21.50;;;11.00;;
79487;SDS011;68949;53.176;18.088;2023-04-24T03:55:03;17.80;;;10.50;;
79487;SDS011;68949;53.176;18.088;2023-04-24T03:57:31;19.40;;;11.10;;
79487;SDS011;68949;53.176;18.088;2023-04-24T04:00:13;20.40;;;11.00;;
79487;SDS011;68949;53.176;18.088;2023-04-24T04:02:44;18.50;;;10.10;;
79487;SDS011;68949;53.176;18.088;2023-04-24T04:05:11;20.70;;;11.30;;
79487;SDS011;68949;53.176;18.088;2023-04-24T04:07:38;17.60;;;9.80;;
79487;SDS011;68949;53.176;18.088;2023-04-24T04:10:05;17.30;;;10.30;;
79487;SDS011;68949;53.176;18.088;2023-04-24T04:12:33;17.50;;;10.40;;
79487;SDS011;68949;53.176;18.088;2023-04-24T04:15:00;16.90;;;10.10;;
79487;SDS011;68949;53.176;18.088;2023-04-24T04:17:27;17.50;;;10.60;;
79487;SDS011;68949;53.176;18.088;2023-04-24T04:19:54;17.80;;;11.30;;
79487;SDS011;68949;53.176;18.088;2023-04-24T04:22:21;17.50;;;10.30;;
79487;SDS011;68949;53.176;18.088;2023-04-24T04:24:50;17.70;;;10.70;;
79487;SDS011;68949;53.176;18.088;2023-04-24T04:27:19;15.50;;;9.50;;
79487;SDS011;68949;53.176;18.088;2023-04-24T04:30:00;17.10;;;9.90;;
79487;SDS011;68949;53.176;18.088;2023-04-24T04:32:31;17.50;;;10.60;;
79487;SDS011;68949;53.176;18.088;2023-04-24T04:35:00;20.50;;;11.10;;
79487;SDS011;68949;53.176;18.088;2023-04-24T04:37:31;19.20;;;11.10;;
79487;SDS011;68949;53.176;18.088;2023-04-24T04:40:22;17.90;;;10.60;;
79487;SDS011;68949;53.176;18.088;2023-04-24T04:42:54;17.50;;;10.50;;
79487;SDS011;68949;53.176;18.088;2023-04-24T04:45:21;16.60;;;9.70;;
79487;SDS011;68949;53.176;18.088;2023-04-24T04:48:08;17.40;;;10.50;;
79487;SDS011;68949;53.176;18.088;2023-04-24T04:50:36;19.80;;;11.00;;
79487;SDS011;68949;53.176;18.088;2023-04-24T04:53:06;17.40;;;9.90;;
79487;SDS011;68949;53.176;18.088;2023-04-24T04:55:34;17.60;;;10.50;;
79487;SDS011;68949;53.176;18.088;2023-04-24T04:58:07;16.70;;;9.70;;
79487;SDS011;68949;53.176;18.088;2023-04-24T05:00:34;18.20;;;10.60;;
79487;SDS011;68949;53.176;18.088;2023-04-24T05:03:11;16.70;;;10.30;;
79487;SDS011;68949;53.176;18.088;2023-04-24T05:05:38;15.50;;;9.60;;
79487;SDS011;68949;53.176;18.088;2023-04-24T05:08:09;17.80;;;9.60;;
79487;SDS011;68949;53.176;18.088;2023-04-24T05:10:36;14.90;;;8.60;;
79487;SDS011;68949;53.176;18.088;2023-04-24T05:13:03;16.10;;;9.70;;
79487;SDS011;68949;53.176;18.088;2023-04-24T05:15:31;15.40;;;9.30;;
79487;SDS011;68949;53.176;18.088;2023-04-24T05:17:58;17.50;;;10.10;;
79487;SDS011;68949;53.176;18.088;2023-04-24T05:20:25;18.70;;;10.20;;
79487;SDS011;68949;53.176;18.088;2023-04-24T05:22:52;17.90;;;10.60;;
79487;SDS011;68949;53.176;18.088;2023-04-24T05:25:19;18.60;;;11.00;;
79487;SDS011;68949;53.176;18.088;2023-04-24T05:27:59;18.50;;;11.20;;
79487;SDS011;68949;53.176;18.088;2023-04-24T05:30:26;17.30;;;10.80;;
79487;SDS011;68949;53.176;18.088;2023-04-24T05:32:54;17.20;;;10.30;;
79487;SDS011;68949;53.176;18.088;2023-04-24T05:35:21;15.40;;;9.00;;
79487;SDS011;68949;53.176;18.088;2023-04-24T05:37:47;15.90;;;9.60;;
79487;SDS011;68949;53.176;18.088;2023-04-24T05:40:14;17.30;;;10.30;;
79487;SDS011;68949;53.176;18.088;2023-04-24T05:42:42;14.00;;;9.00;;
79487;SDS011;68949;53.176;18.088;2023-04-24T05:45:09;17.30;;;9.80;;
79487;SDS011;68949;53.176;18.088;2023-04-24T05:47:43;17.10;;;9.80;;
79487;SDS011;68949;53.176;18.088;2023-04-24T05:50:11;15.90;;;9.50;;
79487;SDS011;68949;53.176;18.088;2023-04-24T05:52:38;15.30;;;9.40;;
79487;SDS011;68949;53.176;18.088;2023-04-24T05:55:10;14.90;;;9.80;;
79487;SDS011;68949;53.176;18.088;2023-04-24T05:57:38;14.80;;;9.20;;
79487;SDS011;68949;53.176;18.088;2023-04-24T06:00:05;14.10;;;8.30;;
79487;SDS011;68949;53.176;18.088;2023-04-24T06:02:46;16.50;;;9.30;;
79487;SDS011;68949;53.176;18.088;2023-04-24T06:05:13;15.10;;;9.00;;
79487;SDS011;68949;53.176;18.088;2023-04-24T06:07:41;14.40;;;9.50;;
79487;SDS011;68949;53.176;18.088;2023-04-24T06:10:08;16.10;;;9.30;;
79487;SDS011;68949;53.176;18.088;2023-04-24T06:12:40;15.90;;;9.50;;
79487;SDS011;68949;53.176;18.088;2023-04-24T06:15:11;13.70;;;8.80;;
79487;SDS011;68949;53.176;18.088;2023-04-24T06:17:53;17.00;;;10.60;;
79487;SDS011;68949;53.176;18.088;2023-04-24T06:20:20;17.70;;;9.40;;
79487;SDS011;68949;53.176;18.088;2023-04-24T06:22:47;17.90;;;10.20;;
79487;SDS011;68949;53.176;18.088;2023-04-24T06:25:14;15.10;;;9.80;;
79487;SDS011;68949;53.176;18.088;2023-04-24T06:27:41;14.80;;;8.90;;
79487;SDS011;68949;53.176;18.088;2023-04-24T06:30:08;16.10;;;9.30;;
79487;SDS011;68949;53.176;18.088;2023-04-24T06:32:36;17.60;;;9.40;;
79487;SDS011;68949;53.176;18.088;2023-04-24T06:35:03;17.00;;;9.90;;
79487;SDS011;68949;53.176;18.088;2023-04-24T06:37:30;16.50;;;9.40;;
79487;SDS011;68949;53.176;18.088;2023-04-24T06:39:58;17.50;;;9.90;;
79487;SDS011;68949;53.176;18.088;2023-04-24T06:42:25;15.70;;;9.70;;
79487;SDS011;68949;53.176;18.088;2023-04-24T06:44:52;16.50;;;9.50;;
79487;SDS011;68949;53.176;18.088;2023-04-24T06:47:18;14.90;;;8.50;;
79487;SDS011;68949;53.176;18.088;2023-04-24T06:49:45;16.80;;;9.40;;
79487;SDS011;68949;53.176;18.088;2023-04-24T06:52:12;16.20;;;10.30;;
79487;SDS011;68949;53.176;18.088;2023-04-24T06:54:38;17.20;;;9.50;;
79487;SDS011;68949;53.176;18.088;2023-04-24T06:57:05;14.40;;;8.30;;
79487;SDS011;68949;53.176;18.088;2023-04-24T06:59:32;15.60;;;10.40;;
79487;SDS011;68949;53.176;18.088;2023-04-24T07:01:58;14.80;;;9.00;;
79487;SDS011;68949;53.176;18.088;2023-04-24T07:04:25;14.90;;;9.30;;
79487;SDS011;68949;53.176;18.088;2023-04-24T07:06:52;18.40;;;10.00;;
79487;SDS011;68949;53.176;18.088;2023-04-24T07:09:23;16.20;;;8.60;;
79487;SDS011;68949;53.176;18.088;2023-04-24T07:11:52;14.50;;;9.80;;
79487;SDS011;68949;53.176;18.088;2023-04-24T07:14:20;16.00;;;9.30;;
79487;SDS011;68949;53.176;18.088;2023-04-24T07:16:47;13.60;;;8.90;;
79487;SDS011;68949;53.176;18.088;2023-04-24T07:19:13;14.20;;;8.80;;
79487;SDS011;68949;53.176;18.088;2023-04-24T07:21:40;14.40;;;8.60;;
79487;SDS011;68949;53.176;18.088;2023-04-24T07:24:07;14.90;;;8.90;;
79487;SDS011;68949;53.176;18.088;2023-04-24T07:26:37;13.70;;;8.10;;
79487;SDS011;68949;53.176;18.088;2023-04-24T07:29:05;13.50;;;8.00;;
79487;SDS011;68949;53.176;18.088;2023-04-24T07:31:33;14.40;;;8.10;;
79487;SDS011;68949;53.176;18.088;2023-04-24T07:34:00;12.90;;;7.90;;
79487;SDS011;68949;53.176;18.088;2023-04-24T07:36:27;13.40;;;8.10;;
79487;SDS011;68949;53.176;18.088;2023-04-24T07:38:54;14.20;;;8.20;;
79487;SDS011;68949;53.176;18.088;2023-04-24T07:41:22;12.40;;;8.20;;
79487;SDS011;68949;53.176;18.088;2023-04-24T07:43:50;13.70;;;7.50;;
79487;SDS011;68949;53.176;18.088;2023-04-24T07:46:17;13.40;;;8.00;;
79487;SDS011;68949;53.176;18.088;2023-04-24T07:48:44;11.10;;;7.00;;
79487;SDS011;68949;53.176;18.088;2023-04-24T07:51:12;11.90;;;6.50;;
79487;SDS011;68949;53.176;18.088;2023-04-24T07:53:39;11.60;;;6.80;;
79487;SDS011;68949;53.176;18.088;2023-04-24T07:56:06;10.60;;;6.20;;
79487;SDS011;68949;53.176;18.088;2023-04-24T07:58:34;11.00;;;6.10;;
79487;SDS011;68949;53.176;18.088;2023-04-24T08:01:01;11.10;;;7.00;;
79487;SDS011;68949;53.176;18.088;2023-04-24T08:03:28;11.10;;;6.40;;
79487;SDS011;68949;53.176;18.088;2023-04-24T08:05:54;11.50;;;7.50;;
79487;SDS011;68949;53.176;18.088;2023-04-24T08:08:22;11.60;;;6.90;;
79487;SDS011;68949;53.176;18.088;2023-04-24T08:10:50;10.50;;;6.30;;
79487;SDS011;68949;53.176;18.088;2023-04-24T08:13:16;10.40;;;6.30;;
79487;SDS011;68949;53.176;18.088;2023-04-24T08:15:43;10.30;;;6.30;;
79487;SDS011;68949;53.176;18.088;2023-04-24T08:18:10;10.90;;;6.30;;
79487;SDS011;68949;53.176;18.088;2023-04-24T08:20:39;9.30;;;5.40;;
79487;SDS011;68949;53.176;18.088;2023-04-24T08:23:06;9.60;;;5.00;;
79487;SDS011;68949;53.176;18.088;2023-04-24T08:25:32;9.60;;;4.90;;
79487;SDS011;68949;53.176;18.088;2023-04-24T08:28:05;10.30;;;5.40;;
79487;SDS011;68949;53.176;18.088;2023-04-24T08:30:33;9.50;;;5.90;;
79487;SDS011;68949;53.176;18.088;2023-04-24T08:32:59;10.00;;;5.10;;
79487;SDS011;68949;53.176;18.088;2023-04-24T08:35:26;8.40;;;4.80;;
79487;SDS011;68949;53.176;18.088;2023-04-24T08:37:53;8.20;;;5.00;;
79487;SDS011;68949;53.176;18.088;2023-04-24T08:40:27;9.60;;;4.60;;
79487;SDS011;68949;53.176;18.088;2023-04-24T08:42:59;9.10;;;4.60;;
79487;SDS011;68949;53.176;18.088;2023-04-24T08:45:26;8.80;;;5.10;;
79487;SDS011;68949;53.176;18.088;2023-04-24T08:47:53;9.50;;;4.60;;
79487;SDS011;68949;53.176;18.088;2023-04-24T08:50:21;9.80;;;4.60;;
79487;SDS011;68949;53.176;18.088;2023-04-24T08:52:52;8.30;;;5.00;;
79487;SDS011;68949;53.176;18.088;2023-04-24T08:55:20;8.80;;;5.10;;
79487;SDS011;68949;53.176;18.088;2023-04-24T08:57:52;7.10;;;4.60;;
79487;SDS011;68949;53.176;18.088;2023-04-24T09:00:21;9.30;;;4.50;;
79487;SDS011;68949;53.176;18.088;2023-04-24T09:02:49;10.70;;;4.50;;
79487;SDS011;68949;53.176;18.088;2023-04-24T09:05:17;9.50;;;4.40;;
79487;SDS011;68949;53.176;18.088;2023-04-24T09:07:53;7.50;;;5.10;;
79487;SDS011;68949;53.176;18.088;2023-04-24T09:10:23;8.60;;;5.10;;
79487;SDS011;68949;53.176;18.088;2023-04-24T09:12:51;8.60;;;4.20;;
79487;SDS011;68949;53.176;18.088;2023-04-24T09:15:19;7.80;;;4.40;;
79487;SDS011;68949;53.176;18.088;2023-04-24T09:17:47;8.80;;;4.20;;
79487;SDS011;68949;53.176;18.088;2023-04-24T09:20:14;7.50;;;4.60;;
79487;SDS011;68949;53.176;18.088;2023-04-24T09:22:42;9.50;;;4.20;;
79487;SDS011;68949;53.176;18.088;2023-04-24T09:25:09;7.20;;;3.80;;
79487;SDS011;68949;53.176;18.088;2023-04-24T09:27:42;7.10;;;4.00;;
79487;SDS011;68949;53.176;18.088;2023-04-24T09:30:11;10.10;;;4.50;;
79487;SDS011;68949;53.176;18.088;2023-04-24T09:32:39;8.90;;;4.60;;
79487;SDS011;68949;53.176;18.088;2023-04-24T09:37:41;12.20;;;5.40;;
79487;SDS011;68949;53.176;18.088;2023-04-24T09:40:19;9.10;;;4.70;;
79487;SDS011;68949;53.176;18.088;2023-04-24T09:42:53;8.00;;;4.40;;
79487;SDS011;68949;53.176;18.088;2023-04-24T09:45:28;9.20;;;5.90;;
79487;SDS011;68949;53.176;18.088;2023-04-24T09:48:01;10.50;;;5.50;;
79487;SDS011;68949;53.176;18.088;2023-04-24T09:50:30;10.10;;;5.50;;
79487;SDS011;68949;53.176;18.088;2023-04-24T09:53:02;9.70;;;4.90;;
79487;SDS011;68949;53.176;18.088;2023-04-24T09:55:31;10.10;;;5.40;;
79487;SDS011;68949;53.176;18.088;2023-04-24T09:57:59;8.50;;;5.20;;
79487;SDS011;68949;53.176;18.088;2023-04-24T10:00:29;12.20;;;6.10;;
79487;SDS011;68949;53.176;18.088;2023-04-24T10:02:59;9.90;;;5.80;;
79487;SDS011;68949;53.176;18.088;2023-04-24T10:05:36;8.80;;;5.20;;
79487;SDS011;68949;53.176;18.088;2023-04-24T10:08:07;8.60;;;5.70;;
79487;SDS011;68949;53.176;18.088;2023-04-24T10:10:42;9.10;;;5.20;;
79487;SDS011;68949;53.176;18.088;2023-04-24T10:13:11;7.40;;;4.70;;
79487;SDS011;68949;53.176;18.088;2023-04-24T10:15:41;9.30;;;4.80;;
79487;SDS011;68949;53.176;18.088;2023-04-24T10:18:09;10.90;;;4.60;;
79487;SDS011;68949;53.176;18.088;2023-04-24T10:20:38;9.60;;;5.00;;
79487;SDS011;68949;53.176;18.088;2023-04-24T10:23:07;7.20;;;4.40;;
79487;SDS011;68949;53.176;18.088;2023-04-24T10:25:35;11.90;;;5.90;;
79487;SDS011;68949;53.176;18.088;2023-04-24T10:28:03;7.80;;;5.10;;
79487;SDS011;68949;53.176;18.088;2023-04-24T10:30:33;9.40;;;4.40;;
79487;SDS011;68949;53.176;18.088;2023-04-24T10:33:04;8.30;;;4.80;;
79487;SDS011;68949;53.176;18.088;2023-04-24T10:35:38;8.90;;;5.10;;
79487;SDS011;68949;53.176;18.088;2023-04-24T10:40:42;7.20;;;4.40;;
79487;SDS011;68949;53.176;18.088;2023-04-24T10:43:09;9.20;;;4.80;;
79487;SDS011;68949;53.176;18.088;2023-04-24T10:45:38;8.20;;;4.80;;
79487;SDS011;68949;53.176;18.088;2023-04-24T10:48:07;8.00;;;5.20;;
79487;SDS011;68949;53.176;18.088;2023-04-24T10:50:47;8.90;;;6.20;;
79487;SDS011;68949;53.176;18.088;2023-04-24T10:53:29;8.60;;;5.50;;
79487;SDS011;68949;53.176;18.088;2023-04-24T10:56:08;9.20;;;5.50;;
79487;SDS011;68949;53.176;18.088;2023-04-24T10:58:49;9.00;;;4.40;;
79487;SDS011;68949;53.176;18.088;2023-04-24T11:01:31;7.90;;;6.10;;
79487;SDS011;68949;53.176;18.088;2023-04-24T11:04:00;8.30;;;4.90;;
79487;SDS011;68949;53.176;18.088;2023-04-24T11:06:30;7.50;;;4.70;;
79487;SDS011;68949;53.176;18.088;2023-04-24T11:11:35;10.00;;;5.90;;
79487;SDS011;68949;53.176;18.088;2023-04-24T11:14:05;9.60;;;6.40;;
79487;SDS011;68949;53.176;18.088;2023-04-24T11:16:44;13.40;;;6.40;;
79487;SDS011;68949;53.176;18.088;2023-04-24T11:21:58;8.40;;;5.80;;
79487;SDS011;68949;53.176;18.088;2023-04-24T11:24:38;9.80;;;6.50;;
79487;SDS011;68949;53.176;18.088;2023-04-24T11:27:15;12.90;;;8.60;;
79487;SDS011;68949;53.176;18.088;2023-04-24T11:29:48;12.50;;;8.60;;
79487;SDS011;68949;53.176;18.088;2023-04-24T11:35:05;10.70;;;7.30;;
79487;SDS011;68949;53.176;18.088;2023-04-24T11:37:37;13.60;;;8.10;;
79487;SDS011;68949;53.176;18.088;2023-04-24T11:40:09;12.70;;;8.40;;
79487;SDS011;68949;53.176;18.088;2023-04-24T11:42:42;10.50;;;7.30;;
79487;SDS011;68949;53.176;18.088;2023-04-24T11:45:14;14.20;;;8.30;;
79487;SDS011;68949;53.176;18.088;2023-04-24T11:47:52;10.60;;;7.80;;
79487;SDS011;68949;53.176;18.088;2023-04-24T11:50:22;11.30;;;7.80;;
79487;SDS011;68949;53.176;18.088;2023-04-24T11:52:52;11.50;;;6.90;;
79487;SDS011;68949;53.176;18.088;2023-04-24T11:57:47;13.30;;;8.20;;
79487;SDS011;68949;53.176;18.088;2023-04-24T12:00:21;11.60;;;7.80;;
79487;SDS011;68949;53.176;18.088;2023-04-24T12:02:50;15.00;;;7.60;;
79487;SDS011;68949;53.176;18.088;2023-04-24T12:05:22;11.00;;;7.70;;
79487;SDS011;68949;53.176;18.088;2023-04-24T12:07:49;11.70;;;7.20;;
79487;SDS011;68949;53.176;18.088;2023-04-24T12:10:21;16.30;;;8.80;;
79487;SDS011;68949;53.176;18.088;2023-04-24T12:12:50;11.80;;;6.70;;
79487;SDS011;68949;53.176;18.088;2023-04-24T12:15:19;12.90;;;7.90;;
79487;SDS011;68949;53.176;18.088;2023-04-24T12:17:47;10.00;;;6.90;;
79487;SDS011;68949;53.176;18.088;2023-04-24T12:20:14;11.90;;;6.90;;
79487;SDS011;68949;53.176;18.088;2023-04-24T12:22:54;10.10;;;6.40;;
79487;SDS011;68949;53.176;18.088;2023-04-24T12:25:24;11.20;;;6.10;;
79487;SDS011;68949;53.176;18.088;2023-04-24T12:28:08;10.20;;;6.10;;
79487;SDS011;68949;53.176;18.088;2023-04-24T12:30:44;9.10;;;5.50;;
79487;SDS011;68949;53.176;18.088;2023-04-24T12:33:18;7.10;;;4.10;;
79487;SDS011;68949;53.176;18.088;2023-04-24T12:35:48;8.50;;;5.70;;
79487;SDS011;68949;53.176;18.088;2023-04-24T12:38:22;6.70;;;3.80;;
79487;SDS011;68949;53.176;18.088;2023-04-24T12:41:08;7.70;;;4.30;;
79487;SDS011;68949;53.176;18.088;2023-04-24T12:43:36;8.30;;;3.90;;
79487;SDS011;68949;53.176;18.088;2023-04-24T12:46:04;6.80;;;3.70;;
79487;SDS011;68949;53.176;18.088;2023-04-24T12:48:31;8.70;;;4.00;;
79487;SDS011;68949;53.176;18.088;2023-04-24T12:50:58;6.30;;;4.00;;
79487;SDS011;68949;53.176;18.088;2023-04-24T12:53:28;5.90;;;3.50;;
79487;SDS011;68949;53.176;18.088;2023-04-24T12:55:56;6.90;;;3.90;;
79487;SDS011;68949;53.176;18.088;2023-04-24T12:58:23;5.30;;;3.20;;
79487;SDS011;68949;53.176;18.088;2023-04-24T13:00:51;6.00;;;3.50;;
79487;SDS011;68949;53.176;18.088;2023-04-24T13:03:18;6.80;;;3.20;;
79487;SDS011;68949;53.176;18.088;2023-04-24T13:05:45;6.70;;;3.70;;
79487;SDS011;68949;53.176;18.088;2023-04-24T13:08:11;6.30;;;4.00;;
79487;SDS011;68949;53.176;18.088;2023-04-24T13:10:39;6.60;;;3.10;;
79487;SDS011;68949;53.176;18.088;2023-04-24T13:13:07;5.70;;;2.60;;
79487;SDS011;68949;53.176;18.088;2023-04-24T13:15:34;8.60;;;3.50;;
79487;SDS011;68949;53.176;18.088;2023-04-24T13:18:01;7.10;;;3.20;;
79487;SDS011;68949;53.176;18.088;2023-04-24T13:20:28;6.70;;;3.20;;
79487;SDS011;68949;53.176;18.088;2023-04-24T13:22:55;6.20;;;3.00;;
79487;SDS011;68949;53.176;18.088;2023-04-24T13:25:22;6.60;;;3.10;;
79487;SDS011;68949;53.176;18.088;2023-04-24T13:27:49;5.40;;;2.80;;
79487;SDS011;68949;53.176;18.088;2023-04-24T13:30:17;6.70;;;3.20;;
79487;SDS011;68949;53.176;18.088;2023-04-24T13:32:44;5.20;;;3.20;;
79487;SDS011;68949;53.176;18.088;2023-04-24T13:35:11;6.10;;;3.40;;
79487;SDS011;68949;53.176;18.088;2023-04-24T13:37:37;7.10;;;4.40;;
79487;SDS011;68949;53.176;18.088;2023-04-24T13:40:04;8.40;;;4.50;;
79487;SDS011;68949;53.176;18.088;2023-04-24T13:42:32;8.10;;;3.40;;
79487;SDS011;68949;53.176;18.088;2023-04-24T13:44:59;9.40;;;5.10;;
79487;SDS011;68949;53.176;18.088;2023-04-24T13:47:26;7.60;;;4.50;;
79487;SDS011;68949;53.176;18.088;2023-04-24T13:49:53;8.30;;;5.50;;
79487;SDS011;68949;53.176;18.088;2023-04-24T13:52:20;8.00;;;4.90;;
79487;SDS011;68949;53.176;18.088;2023-04-24T13:54:47;8.90;;;5.90;;
79487;SDS011;68949;53.176;18.088;2023-04-24T13:57:14;8.40;;;4.80;;
79487;SDS011;68949;53.176;18.088;2023-04-24T13:59:42;7.50;;;4.30;;
79487;SDS011;68949;53.176;18.088;2023-04-24T14:02:09;11.70;;;4.30;;
79487;SDS011;68949;53.176;18.088;2023-04-24T14:04:38;5.90;;;3.70;;
79487;SDS011;68949;53.176;18.088;2023-04-24T14:07:05;8.00;;;4.40;;
79487;SDS011;68949;53.176;18.088;2023-04-24T14:09:32;7.30;;;3.80;;
79487;SDS011;68949;53.176;18.088;2023-04-24T14:11:59;6.50;;;4.20;;
79487;SDS011;68949;53.176;18.088;2023-04-24T14:14:27;7.00;;;3.50;;
79487;SDS011;68949;53.176;18.088;2023-04-24T14:16:58;5.60;;;3.10;;
79487;SDS011;68949;53.176;18.088;2023-04-24T14:19:25;7.60;;;3.10;;
79487;SDS011;68949;53.176;18.088;2023-04-24T14:21:51;5.30;;;2.80;;
79487;SDS011;68949;53.176;18.088;2023-04-24T14:24:18;5.70;;;3.00;;
79487;SDS011;68949;53.176;18.088;2023-04-24T14:26:45;5.10;;;2.50;;
79487;SDS011;68949;53.176;18.088;2023-04-24T14:29:12;6.60;;;3.50;;
79487;SDS011;68949;53.176;18.088;2023-04-24T14:31:38;9.10;;;3.70;;
79487;SDS011;68949;53.176;18.088;2023-04-24T14:34:05;7.00;;;4.20;;
79487;SDS011;68949;53.176;18.088;2023-04-24T14:36:32;8.10;;;4.50;;
79487;SDS011;68949;53.176;18.088;2023-04-24T14:38:59;5.50;;;2.80;;
79487;SDS011;68949;53.176;18.088;2023-04-24T14:41:25;6.60;;;3.90;;
79487;SDS011;68949;53.176;18.088;2023-04-24T14:43:52;6.30;;;3.70;;
79487;SDS011;68949;53.176;18.088;2023-04-24T14:46:19;7.70;;;3.70;;
79487;SDS011;68949;53.176;18.088;2023-04-24T14:48:46;8.00;;;3.90;;